Portada
METAR-TAF:

METAR-TAF

Aeroports :

Ipatinga, Minas Gerais, Brasil

latitud: 19-28-14S, longitud: 042-29-17W, altitud: 239 m

Observació

L'informe es va fer fa 1 hora i 11 minuts, a les 15:00 UTC
Vent 10 kt del Est/Nord-Est
Temperatura 29°C
Humitat 55%
Pressió 1015 hPa
Visibilitat 10 km o més
Cel ennuvolat a una alçada de 2500 ft

METAR: SBIP 121500Z 07010KT 9999 BKN025 29/19 Q1015

Hora: 14:11 (16:11 UTC)


TAF: manca

Observacions i pronòstics meteorològics de més de 4000 aeroports (METAR i TAF).

Les estacions disponibles són els punts grocs i vermells al mapa.

Posi el ratolí al punt desitjat per veure el nom de l'estació.

Feu clic per veure les observacions i els pronòstics meteorològics.

Per canviar el mapa: feu clic els botons verds amb una creu de color negre per apropar; al botó verd amb un guió per allunyar la imatge; o en les fletxes verdes per a mapes adjacents.


METAR-TAF: